Time;durP1;ratioP1;P1;durP2;ratioP2;P2;SDS_P1;SDS_P2;PMS_P1;PMS_P2;Temp;Humidity;BMP_temperature;BMP_pressure;BME280_temperature;BME280_humidity;BME280_pressure;Samples;Min_cycle;Max_cycle;Signal;HPM_P1;HPM_P2
2023/03/16 00:00:47;;;;;;;30.20;19.85;;;7.00;89.50;;;;;;5032922;28;20021;-66
2023/03/16 00:03:19;;;;;;;34.15;24.02;;;7.10;87.70;;;;;;5033083;28;20472;-63
2023/03/16 00:05:52;;;;;;;32.13;20.88;;;7.20;86.70;;;;;;5035419;28;20427;-61
2023/03/16 00:08:18;;;;;;;30.08;21.63;;;7.10;83.90;;;;;;5036555;28;20029;-63
2023/03/16 00:10:45;;;;;;;27.52;19.67;;;7.10;82.90;;;;;;5036394;28;20442;-64
2023/03/16 00:13:22;;;;;;;26.55;17.00;;;7.10;83.10;;;;;;5036223;28;20029;-63
2023/03/16 00:15:56;;;;;;;23.92;15.80;;;7.20;79.60;;;;;;5036321;28;20041;-65
2023/03/16 00:18:27;;;;;;;24.80;17.98;;;7.20;80.90;;;;;;5036157;28;20025;-66
2023/03/16 00:20:58;;;;;;;26.90;17.48;;;7.30;79.60;;;;;;5036372;28;20064;-64
2023/03/16 00:23:27;;;;;;;19.95;14.57;;;7.30;79.30;;;;;;5036292;28;20025;-62
2023/03/16 00:25:58;;;;;;;26.73;17.10;;;7.20;79.40;;;;;;5036329;28;20018;-65
2023/03/16 00:28:25;;;;;;;23.23;16.08;;;7.30;79.70;;;;;;5035994;28;20044;-67
2023/03/16 00:30:51;;;;;;;30.20;17.92;;;7.20;79.40;;;;;;5036058;28;20021;-63
2023/03/16 00:33:17;;;;;;;21.70;15.07;;;7.20;80.60;;;;;;5035719;28;20456;-60
2023/03/16 00:35:48;;;;;;;32.13;21.38;;;7.10;79.30;;;;;;5035737;28;20050;-63
2023/03/16 00:38:18;;;;;;;24.58;17.17;;;7.10;81.40;;;;;;5035965;28;20030;-65
2023/03/16 00:40:44;;;;;;;23.35;15.38;;;6.90;79.00;;;;;;5035744;28;20036;-63
2023/03/16 00:43:10;;;;;;;22.45;14.32;;;6.80;78.70;;;;;;5036080;28;20021;-64
2023/03/16 00:45:35;;;;;;;18.42;13.02;;;6.90;78.70;;;;;;5035784;28;20116;-64
2023/03/16 00:48:01;;;;;;;14.50;11.30;;;6.90;75.70;;;;;;5035418;28;20041;-64
2023/03/16 00:50:27;;;;;;;15.63;11.50;;;7.00;76.10;;;;;;5035905;28;20361;-66
2023/03/16 00:52:53;;;;;;;13.23;10.13;;;7.00;74.10;;;;;;5035940;28;20056;-63
2023/03/16 00:55:20;;;;;;;11.68;9.27;;;7.10;74.40;;;;;;5035511;28;20032;-64
2023/03/16 00:57:45;;;;;;;14.68;10.23;;;7.10;74.90;;;;;;5035656;28;20014;-64
2023/03/16 01:00:15;;;;;;;14.07;9.57;;;7.20;74.50;;;;;;5035493;28;20029;-61
2023/03/16 01:02:44;;;;;;;17.85;11.85;;;7.20;74.50;;;;;;5035139;28;20472;-62
2023/03/16 01:05:11;;;;;;;16.60;11.85;;;7.20;74.70;;;;;;5035659;28;20049;-67
2023/03/16 01:07:38;;;;;;;20.55;13.65;;;7.20;75.10;;;;;;5035390;28;20523;-67
2023/03/16 01:10:05;;;;;;;21.17;13.80;;;7.30;74.90;;;;;;5035245;28;20170;-59
2023/03/16 01:12:30;;;;;;;15.38;10.75;;;7.30;74.50;;;;;;5035259;28;20025;-67
2023/03/16 01:14:56;;;;;;;14.63;10.15;;;7.20;72.80;;;;;;5034655;28;20021;-63
2023/03/16 01:17:22;;;;;;;13.32;9.63;;;7.20;73.20;;;;;;5034714;28;20018;-63
2023/03/16 01:19:48;;;;;;;13.18;8.93;;;7.20;72.70;;;;;;5035255;28;20033;-62
2023/03/16 01:22:15;;;;;;;15.13;10.52;;;7.20;72.30;;;;;;5035092;28;20022;-65
2023/03/16 01:24:43;;;;;;;19.20;12.95;;;7.30;72.70;;;;;;5035077;28;20025;-66
2023/03/16 01:27:10;;;;;;;16.92;11.10;;;7.20;72.80;;;;;;5035107;28;20025;-60
2023/03/16 01:29:36;;;;;;;17.80;11.05;;;7.20;73.70;;;;;;5034955;28;20025;-65
2023/03/16 01:32:03;;;;;;;14.40;10.98;;;7.20;78.50;;;;;;5034645;28;20483;-59
2023/03/16 01:34:29;;;;;;;13.52;9.05;;;7.00;81.90;;;;;;5035100;28;20383;-66
2023/03/16 01:36:55;;;;;;;13.50;8.55;;;6.80;80.70;;;;;;5034651;28;20115;-66
2023/03/16 01:39:21;;;;;;;12.38;8.95;;;6.80;80.50;;;;;;5035069;28;20022;-65
2023/03/16 01:41:47;;;;;;;13.57;9.25;;;6.80;75.80;;;;;;5034625;28;20100;-62
2023/03/16 01:44:16;;;;;;;13.13;8.57;;;6.80;81.60;;;;;;5034775;28;20013;-66
2023/03/16 01:46:43;;;;;;;10.27;7.13;;;6.80;77.30;;;;;;5034469;28;20022;-65
2023/03/16 01:49:11;;;;;;;12.60;8.43;;;6.80;76.20;;;;;;5034467;28;20124;-63
2023/03/16 01:52:12;;;;;;;11.15;7.97;;;6.90;75.90;;;;;;5034650;28;20022;-67
2023/03/16 01:54:50;;;;;;;16.80;11.88;;;7.00;74.20;;;;;;5034193;28;20056;-65
2023/03/16 01:57:23;;;;;;;43.28;26.30;;;7.10;74.10;;;;;;5034507;28;20025;-64
2023/03/16 01:59:51;;;;;;;28.52;18.00;;;6.90;73.70;;;;;;5034359;28;20026;-68
2023/03/16 02:02:22;;;;;;;25.10;16.60;;;6.90;75.80;;;;;;5034235;28;20510;-69
2023/03/16 02:05:03;;;;;;;20.77;13.02;;;6.90;74.30;;;;;;5034222;28;20025;-61
2023/03/16 02:07:33;;;;;;;17.00;11.30;;;6.90;73.90;;;;;;5034539;28;20422;-58
2023/03/16 02:10:01;;;;;;;14.55;10.20;;;6.90;72.50;;;;;;5034058;28;20113;-60
2023/03/16 02:12:28;;;;;;;13.77;9.40;;;6.90;72.40;;;;;;5034261;28;20018;-69
2023/03/16 02:14:53;;;;;;;12.35;8.27;;;6.90;72.10;;;;;;5034016;28;20387;-67
2023/03/16 02:17:30;;;;;;;11.38;7.60;;;7.00;72.30;;;;;;5034039;28;20109;-64
2023/03/16 02:20:10;;;;;;;11.27;8.02;;;7.00;70.50;;;;;;5034262;28;20429;-66
2023/03/16 02:22:46;;;;;;;9.18;5.47;;;7.00;70.70;;;;;;5033896;28;20064;-61
2023/03/16 02:25:14;;;;;;;10.23;7.15;;;7.00;69.30;;;;;;5034229;28;20490;-63
2023/03/16 02:27:45;;;;;;;10.70;6.72;;;7.00;73.20;;;;;;5033831;28;20025;-63
2023/03/16 02:30:16;;;;;;;10.27;6.75;;;6.80;76.40;;;;;;5033604;28;20095;-64
2023/03/16 02:32:44;;;;;;;15.70;10.27;;;6.70;76.50;;;;;;5033889;28;20064;-65
2023/03/16 02:35:11;;;;;;;13.90;8.27;;;6.70;77.90;;;;;;5033661;28;20058;-64
2023/03/16 02:37:38;;;;;;;9.40;6.60;;;6.50;80.30;;;;;;5033663;28;20084;-61
2023/03/16 02:40:21;;;;;;;9.80;7.10;;;6.30;80.40;;;;;;5033995;28;20379;-63
2023/03/16 02:42:56;;;;;;;13.95;9.07;;;6.30;75.90;;;;;;5033393;28;20017;-66
2023/03/16 02:45:27;;;;;;;12.75;8.82;;;6.40;76.00;;;;;;5033938;28;20451;-64
2023/03/16 02:47:54;;;;;;;10.25;7.25;;;6.20;78.70;;;;;;5033669;28;20025;-65
2023/03/16 02:50:20;;;;;;;7.28;4.70;;;6.10;77.90;;;;;;5033763;28;20124;-63
2023/03/16 02:52:47;;;;;;;6.38;4.20;;;5.90;82.40;;;;;;5033646;28;20539;-64
2023/03/16 02:55:13;;;;;;;8.85;5.60;;;5.60;89.70;;;;;;5033525;28;20381;-66
2023/03/16 02:57:38;;;;;;;7.38;4.15;;;5.40;90.30;;;;;;5033383;28;20369;-64
2023/03/16 03:00:12;;;;;;;10.82;6.35;;;5.20;90.80;;;;;;5033201;28;20036;-67
2023/03/16 03:02:37;;;;;;;8.25;5.40;;;5.20;90.50;;;;;;5033238;28;20033;-58
2023/03/16 03:05:03;;;;;;;8.20;5.68;;;5.10;91.50;;;;;;5033330;28;20116;-64
2023/03/16 03:07:30;;;;;;;10.27;6.47;;;5.10;91.50;;;;;;5033269;28;20092;-63
2023/03/16 03:09:57;;;;;;;7.63;5.07;;;4.90;93.40;;;;;;5033228;28;20357;-63
2023/03/16 03:12:23;;;;;;;4.97;3.10;;;4.70;94.80;;;;;;5033070;28;20017;-64
2023/03/16 03:14:48;;;;;;;8.02;3.20;;;4.50;96.90;;;;;;5033242;28;20160;-63
2023/03/16 03:17:14;;;;;;;7.03;3.85;;;4.30;99.00;;;;;;5033165;28;20053;-60
2023/03/16 03:19:40;;;;;;;6.40;3.58;;;4.20;98.90;;;;;;5033399;28;20029;-63
2023/03/16 03:22:06;;;;;;;7.20;3.97;;;4.20;98.30;;;;;;5033378;28;20499;-64
2023/03/16 03:24:33;;;;;;;7.65;4.88;;;4.10;99.90;;;;;;5033167;28;20021;-66
2023/03/16 03:26:59;;;;;;;7.55;4.50;;;4.10;99.90;;;;;;5032872;28;20026;-62
2023/03/16 03:29:33;;;;;;;7.28;4.28;;;4.10;99.90;;;;;;5033134;28;20053;-66
2023/03/16 03:32:00;;;;;;;9.20;4.65;;;4.10;99.90;;;;;;5033384;28;20022;-61
2023/03/16 03:34:27;;;;;;;6.18;4.43;;;3.90;99.90;;;;;;5033250;28;20476;-64
2023/03/16 03:36:53;;;;;;;8.30;5.78;;;4.00;99.90;;;;;;5032919;28;20050;-67
2023/03/16 03:39:18;;;;;;;10.98;6.93;;;4.10;99.50;;;;;;5034915;28;20075;-65
2023/03/16 03:41:44;;;;;;;12.73;7.53;;;4.30;98.20;;;;;;5036931;28;20025;-67
2023/03/16 03:44:10;;;;;;;6.75;4.30;;;4.30;97.50;;;;;;5036905;28;20075;-66
2023/03/16 03:46:36;;;;;;;8.75;6.35;;;4.20;98.70;;;;;;5036905;28;20100;-64
2023/03/16 03:49:04;;;;;;;9.85;5.68;;;4.10;98.40;;;;;;5036959;28;20029;-66
2023/03/16 03:51:30;;;;;;;6.68;4.57;;;4.10;98.60;;;;;;5037095;28;20056;-65
2023/03/16 03:53:57;;;;;;;5.18;3.80;;;4.00;98.90;;;;;;5036838;28;20014;-66
2023/03/16 03:56:23;;;;;;;7.78;4.28;;;3.90;99.80;;;;;;5036546;28;20490;-62
2023/03/16 03:58:49;;;;;;;7.35;4.25;;;3.70;99.90;;;;;;5036804;28;20030;-65
2023/03/16 04:01:14;;;;;;;6.68;4.43;;;3.60;99.90;;;;;;5036822;28;20032;-67
2023/03/16 04:03:40;;;;;;;10.98;8.07;;;3.50;99.90;;;;;;5036749;28;20028;-66
2023/03/16 04:06:07;;;;;;;18.65;12.98;;;3.40;99.90;;;;;;5036507;28;20108;-66
2023/03/16 04:08:33;;;;;;;18.00;13.10;;;3.40;99.90;;;;;;5036662;28;20030;-66
2023/03/16 04:10:59;;;;;;;20.20;14.70;;;3.40;99.90;;;;;;5036276;28;20024;-65
2023/03/16 04:13:25;;;;;;;20.05;13.27;;;3.30;99.90;;;;;;5036647;28;20057;-63
2023/03/16 04:15:58;;;;;;;14.07;9.77;;;3.30;99.90;;;;;;5036352;28;20103;-63
2023/03/16 04:18:25;;;;;;;9.95;7.07;;;3.40;99.90;;;;;;5036313;28;20392;-61
2023/03/16 04:20:54;;;;;;;9.23;6.28;;;3.50;99.90;;;;;;5036418;28;20120;-61
2023/03/16 04:23:20;;;;;;;9.27;5.00;;;3.60;99.90;;;;;;5036510;28;20080;-66
2023/03/16 04:25:46;;;;;;;17.52;11.15;;;3.80;99.90;;;;;;5035907;28;20022;-67
2023/03/16 04:28:12;;;;;;;24.70;18.33;;;3.80;99.90;;;;;;5036185;28;20034;-63
2023/03/16 04:30:38;;;;;;;17.17;12.75;;;3.70;99.90;;;;;;5036149;28;20029;-64
2023/03/16 04:33:04;;;;;;;23.55;16.25;;;3.80;99.90;;;;;;5036274;28;20199;-65
2023/03/16 04:35:30;;;;;;;20.17;14.32;;;3.90;99.70;;;;;;5035929;28;20056;-67
2023/03/16 04:37:57;;;;;;;33.08;22.27;;;3.90;99.90;;;;;;5035927;28;20079;-62
2023/03/16 04:40:23;;;;;;;44.75;30.88;;;3.90;99.90;;;;;;5035812;28;20050;-63
2023/03/16 04:42:49;;;;;;;34.33;24.63;;;3.80;99.90;;;;;;5035807;28;20423;-66
2023/03/16 04:45:17;;;;;;;43.08;27.27;;;3.80;99.90;;;;;;5035990;28;20025;-65
2023/03/16 04:47:42;;;;;;;26.25;19.58;;;3.90;99.90;;;;;;5035775;28;20499;-65
2023/03/16 04:50:09;;;;;;;27.17;17.85;;;3.90;99.80;;;;;;5034220;28;20030;-61
2023/03/16 04:52:35;;;;;;;28.70;19.25;;;4.00;99.90;;;;;;5035762;28;20029;-66
2023/03/16 04:55:01;;;;;;;24.25;17.05;;;4.10;99.80;;;;;;5035617;28;20468;-61
2023/03/16 04:57:26;;;;;;;20.23;14.05;;;4.00;99.20;;;;;;5035552;28;20028;-65
2023/03/16 04:59:52;;;;;;;29.17;18.55;;;4.00;99.00;;;;;;5035546;28;20026;-65
2023/03/16 05:02:18;;;;;;;24.35;15.82;;;3.90;97.70;;;;;;5035403;28;20021;-63
2023/03/16 05:04:44;;;;;;;18.25;12.18;;;3.80;98.30;;;;;;5035425;28;20045;-59
2023/03/16 05:07:10;;;;;;;22.15;13.82;;;3.80;98.50;;;;;;5035400;28;20499;-63
2023/03/16 05:09:36;;;;;;;18.45;11.88;;;3.80;99.00;;;;;;5035057;28;20034;-63
2023/03/16 05:12:02;;;;;;;21.50;15.13;;;3.70;99.30;;;;;;5035313;28;20025;-59
2023/03/16 05:14:28;;;;;;;23.35;14.23;;;3.70;99.10;;;;;;5035259;28;20029;-63
2023/03/16 05:16:53;;;;;;;17.13;11.82;;;3.80;98.30;;;;;;5035444;28;20092;-63
2023/03/16 05:19:19;;;;;;;19.55;12.55;;;4.00;97.60;;;;;;5035308;28;20109;-63
2023/03/16 05:21:45;;;;;;;20.40;13.07;;;4.20;97.30;;;;;;5035091;28;20018;-67
2023/03/16 05:24:13;;;;;;;23.20;14.57;;;4.20;96.50;;;;;;5035050;28;20529;-69
2023/03/16 05:26:39;;;;;;;38.50;23.38;;;4.30;96.20;;;;;;5035041;28;20101;-63
2023/03/16 05:29:04;;;;;;;29.90;17.33;;;4.30;95.30;;;;;;5033534;28;20128;-63
2023/03/16 05:31:35;;;;;;;18.60;12.73;;;4.40;96.70;;;;;;5035283;28;20021;-67
2023/03/16 05:34:01;;;;;;;16.65;11.27;;;4.30;96.00;;;;;;5034835;28;20108;-62
2023/03/16 05:36:27;;;;;;;15.52;12.32;;;4.20;96.10;;;;;;5034671;28;20118;-65
2023/03/16 05:38:52;;;;;;;16.88;11.48;;;4.10;97.30;;;;;;5034922;28;20471;-60
2023/03/16 05:41:20;;;;;;;18.75;14.55;;;3.90;97.40;;;;;;5034681;28;20504;-64
2023/03/16 05:43:46;;;;;;;25.55;17.70;;;3.90;97.10;;;;;;5034602;28;20055;-65
2023/03/16 05:46:12;;;;;;;23.63;16.02;;;4.00;97.50;;;;;;5036015;28;20130;-62
2023/03/16 05:48:38;;;;;;;23.95;16.77;;;4.00;98.30;;;;;;5042212;28;20554;-64
2023/03/16 05:51:04;;;;;;;21.17;14.20;;;4.10;96.20;;;;;;5044003;28;20293;-66
2023/03/16 05:53:34;;;;;;;19.83;12.32;;;4.20;97.10;;;;;;5048451;28;20104;-66
2023/03/16 05:56:00;;;;;;;17.05;10.50;;;4.20;97.80;;;;;;5052948;28;20052;-63
2023/03/16 05:58:27;;;;;;;20.50;12.55;;;4.00;98.70;;;;;;5054292;28;20032;-64
2023/03/16 06:00:54;;;;;;;23.45;15.98;;;4.00;97.70;;;;;;5054257;28;20107;-69
2023/03/16 06:03:21;;;;;;;35.40;20.92;;;4.00;98.30;;;;;;5053841;28;20024;-64
2023/03/16 06:05:47;;;;;;;29.42;18.67;;;4.00;98.50;;;;;;5053994;28;20025;-67
2023/03/16 06:08:14;;;;;;;27.20;17.27;;;4.00;98.10;;;;;;5053318;28;20079;-66
2023/03/16 06:10:39;;;;;;;40.90;27.13;;;4.10;97.10;;;;;;5052915;28;20023;-63
2023/03/16 06:13:05;;;;;;;77.75;49.25;;;4.50;97.00;;;;;;5053881;28;20104;-64
2023/03/16 06:15:31;;;;;;;65.63;46.35;;;4.50;97.40;;;;;;5053821;28;20021;-67
2023/03/16 06:17:57;;;;;;;67.88;46.88;;;4.40;97.70;;;;;;5054109;28;20032;-63
2023/03/16 06:20:23;;;;;;;80.60;54.25;;;4.20;97.80;;;;;;5054226;28;20112;-68
2023/03/16 06:22:49;;;;;;;68.47;45.00;;;4.10;98.70;;;;;;5052930;28;20071;-71
2023/03/16 06:25:15;;;;;;;225.63;107.18;;;4.30;98.60;;;;;;5052030;28;20075;-70
2023/03/16 06:27:41;;;;;;;110.70;62.15;;;4.30;98.60;;;;;;5032477;28;20499;-71
2023/03/16 06:30:10;;;;;;;84.00;55.08;;;4.60;98.00;;;;;;5040668;28;20029;-66
2023/03/16 06:32:36;;;;;;;69.57;46.88;;;7.30;94.20;;;;;;5051006;28;20065;-64
2023/03/16 06:35:04;;;;;;;42.58;29.52;;;10.50;80.70;;;;;;5038841;28;20111;-65
2023/03/16 06:37:30;;;;;;;33.63;26.75;;;12.90;63.80;;;;;;5033603;28;20033;-67
2023/03/16 06:39:55;;;;;;;63.22;45.85;;;14.40;57.70;;;;;;5033658;28;20487;-69
2023/03/16 06:42:22;;;;;;;64.28;47.22;;;15.40;53.60;;;;;;5032452;28;20029;-65
2023/03/16 06:44:50;;;;;;;48.35;37.40;;;16.40;50.80;;;;;;5034319;28;20052;-69
2023/03/16 06:47:16;;;;;;;30.85;25.77;;;17.90;50.00;;;;;;5036366;28;20032;-68
2023/03/16 06:49:42;;;;;;;19.95;17.55;;;19.60;43.60;;;;;;5031715;28;20099;-68
2023/03/16 06:52:09;;;;;;;17.75;14.25;;;21.00;39.60;;;;;;5048340;28;20033;-65
2023/03/16 06:54:36;;;;;;;13.07;10.80;;;22.10;36.50;;;;;;5051766;28;20043;-65
2023/03/16 06:57:02;;;;;;;5.03;4.40;;;22.70;35.80;;;;;;5051532;28;20027;-68
2023/03/16 06:59:28;;;;;;;5.35;4.85;;;23.30;33.90;;;;;;5051499;28;20097;-65
2023/03/16 07:01:54;;;;;;;4.82;3.28;;;22.00;34.40;;;;;;5049846;28;20789;-63
2023/03/16 07:04:20;;;;;;;3.65;2.50;;;21.00;34.10;;;;;;5048236;28;20023;-71
2023/03/16 07:06:46;;;;;;;2.15;1.95;;;21.70;34.70;;;;;;5030436;28;20040;-66
2023/03/16 07:09:11;;;;;;;3.72;1.90;;;21.60;32.80;;;;;;5031170;28;20033;-73
2023/03/16 07:11:38;;;;;;;3.97;2.05;;;22.50;34.30;;;;;;5030975;28;20056;-69
2023/03/16 07:14:04;;;;;;;2.58;2.00;;;23.30;32.30;;;;;;5033302;28;20017;-71
2023/03/16 07:16:30;;;;;;;2.38;1.83;;;23.80;33.00;;;;;;5049700;28;20029;-66
2023/03/16 07:18:56;;;;;;;5.25;2.80;;;24.10;31.70;;;;;;5040563;28;20127;-69
2023/03/16 07:21:22;;;;;;;3.10;2.20;;;24.50;31.80;;;;;;5042003;28;20048;-73
2023/03/16 07:23:48;;;;;;;2.55;1.70;;;25.10;31.60;;;;;;5052404;28;20033;-70
2023/03/16 07:26:14;;;;;;;2.17;1.80;;;25.10;30.60;;;;;;5052562;28;20025;-69
2023/03/16 07:28:40;;;;;;;2.15;1.55;;;25.70;31.00;;;;;;5052890;28;20032;-65
2023/03/16 07:31:06;;;;;;;2.42;1.85;;;26.50;30.30;;;;;;5049497;28;20017;-65
2023/03/16 07:33:33;;;;;;;2.70;1.60;;;27.00;29.70;;;;;;5050241;28;20086;-65
2023/03/16 07:36:03;;;;;;;3.03;1.83;;;23.40;29.30;;;;;;5051164;28;20049;-66
2023/03/16 07:38:29;;;;;;;2.13;1.58;;;20.30;31.90;;;;;;5050524;28;20494;-69
2023/03/16 07:40:54;;;;;;;2.72;1.60;;;17.80;34.60;;;;;;5057554;28;20422;-65
2023/03/16 07:43:20;;;;;;;2.70;1.58;;;18.80;35.30;;;;;;5058950;28;20035;-67
2023/03/16 07:45:50;;;;;;;1.90;1.45;;;20.20;33.80;;;;;;5059537;28;20025;-71
2023/03/16 07:48:17;;;;;;;1.50;1.40;;;21.70;34.00;;;;;;5060293;28;20020;-68
2023/03/16 07:50:43;;;;;;;1.40;1.20;;;20.00;31.90;;;;;;5059522;28;20025;-73
2023/03/16 07:53:09;;;;;;;3.67;1.70;;;19.50;34.20;;;;;;5061958;28;20021;-68
2023/03/16 07:55:35;;;;;;;2.47;1.30;;;20.90;33.20;;;;;;5060576;28;20025;-67
2023/03/16 07:58:03;;;;;;;1.90;1.33;;;22.70;32.10;;;;;;5056518;28;20021;-64
2023/03/16 08:00:29;;;;;;;3.03;1.38;;;21.60;30.10;;;;;;5045306;28;20044;-65
2023/03/16 08:02:56;;;;;;;1.75;1.15;;;19.90;33.00;;;;;;5050072;28;20440;-68
2023/03/16 08:05:22;;;;;;;2.28;1.80;;;18.40;35.50;;;;;;5040739;28;20030;-65
2023/03/16 08:07:48;;;;;;;1.90;1.20;;;20.70;33.30;;;;;;5037362;28;20378;-70
2023/03/16 08:10:14;;;;;;;2.17;1.20;;;22.00;33.90;;;;;;5038071;28;20037;-66
2023/03/16 08:12:40;;;;;;;3.45;1.58;;;22.80;33.00;;;;;;5041059;28;20029;-69
2023/03/16 08:15:07;;;;;;;1.38;1.02;;;20.40;32.50;;;;;;5048919;28;20115;-68
2023/03/16 08:17:33;;;;;;;1.77;1.00;;;18.10;33.70;;;;;;5043383;28;20021;-66
2023/03/16 08:19:59;;;;;;;2.17;1.35;;;16.50;35.70;;;;;;5035362;28;20026;-67
2023/03/16 08:22:25;;;;;;;2.08;1.50;;;15.70;36.70;;;;;;5036372;28;20029;-71
2023/03/16 08:24:51;;;;;;;1.90;1.40;;;15.00;38.60;;;;;;5036573;28;20018;-70
2023/03/16 08:27:18;;;;;;;2.05;1.40;;;14.60;38.50;;;;;;5033124;28;20074;-66
2023/03/16 08:29:44;;;;;;;2.42;1.85;;;14.40;40.70;;;;;;5034862;28;20121;-70
2023/03/16 08:32:11;;;;;;;2.72;1.55;;;14.30;39.40;;;;;;5033460;28;20104;-66
2023/03/16 08:34:38;;;;;;;3.13;1.40;;;14.10;41.00;;;;;;5033054;28;20091;-64
2023/03/16 08:37:05;;;;;;;2.80;1.58;;;13.90;41.60;;;;;;5033319;28;20476;-66
2023/03/16 08:39:32;;;;;;;2.45;1.27;;;13.20;41.40;;;;;;5032948;28;20053;-69
2023/03/16 08:41:58;;;;;;;1.42;1.10;;;12.60;42.10;;;;;;5035152;28;20025;-66
2023/03/16 08:44:25;;;;;;;2.17;1.40;;;12.40;43.20;;;;;;5034643;28;20017;-68
2023/03/16 08:46:51;;;;;;;1.45;1.23;;;12.40;44.80;;;;;;5034944;28;20033;-68
2023/03/16 08:49:19;;;;;;;1.70;1.40;;;12.30;43.20;;;;;;5037315;28;20132;-67
2023/03/16 08:51:45;;;;;;;2.53;1.38;;;11.90;44.00;;;;;;5047748;28;20029;-67
2023/03/16 08:54:11;;;;;;;1.83;1.25;;;11.70;44.30;;;;;;5052218;28;20033;-67
2023/03/16 08:56:37;;;;;;;1.63;1.35;;;12.70;43.40;;;;;;5053701;28;20044;-68
2023/03/16 08:59:02;;;;;;;2.75;1.50;;;12.40;44.00;;;;;;5051800;28;20032;-65
2023/03/16 09:01:28;;;;;;;2.08;1.30;;;12.00;44.20;;;;;;5051311;28;20021;-67
2023/03/16 09:03:54;;;;;;;1.80;1.50;;;12.60;46.10;;;;;;5050958;28;20021;-66
2023/03/16 09:06:21;;;;;;;1.60;1.30;;;13.80;42.60;;;;;;5052194;28;20017;-67
2023/03/16 09:08:47;;;;;;;2.25;1.17;;;14.30;42.10;;;;;;5053503;28;20079;-63
2023/03/16 09:11:15;;;;;;;2.22;1.10;;;14.10;42.30;;;;;;5053537;28;20048;-64
2023/03/16 09:13:42;;;;;;;1.38;1.20;;;14.00;42.90;;;;;;5052020;28;20071;-67
2023/03/16 09:16:09;;;;;;;3.40;2.17;;;14.60;42.80;;;;;;5052761;28;20356;-63
2023/03/16 09:18:35;;;;;;;3.65;2.70;;;14.90;43.30;;;;;;5051110;28;20029;-65
2023/03/16 09:21:06;;;;;;;2.75;2.30;;;14.90;42.90;;;;;;5053736;28;20061;-64
2023/03/16 09:23:33;;;;;;;2.40;1.90;;;14.90;43.90;;;;;;5050198;28;20494;-68
2023/03/16 09:26:01;;;;;;;4.55;3.50;;;14.60;41.40;;;;;;5052289;28;20040;-67
2023/03/16 09:28:29;;;;;;;5.10;3.80;;;14.80;42.70;;;;;;5052680;28;20079;-63
2023/03/16 09:30:59;;;;;;;3.78;3.13;;;14.70;43.30;;;;;;5052684;28;20475;-65
2023/03/16 09:33:27;;;;;;;5.80;3.03;;;14.30;43.30;;;;;;5052850;28;20029;-69
2023/03/16 09:35:56;;;;;;;4.03;2.30;;;14.10;44.80;;;;;;5052878;28;20044;-65
2023/03/16 09:38:25;;;;;;;2.47;1.80;;;14.50;46.60;;;;;;5047826;28;20039;-69
2023/03/16 09:41:01;;;;;;;2.33;1.48;;;15.20;43.50;;;;;;5039431;28;20041;-73
2023/03/16 09:43:33;;;;;;;1.83;1.25;;;15.20;42.30;;;;;;5043895;28;20043;-69
2023/03/16 09:46:08;;;;;;;1.58;1.40;;;15.00;41.30;;;;;;5041864;28;20371;-71
2023/03/16 09:48:36;;;;;;;2.47;2.03;;;14.80;40.10;;;;;;5038858;28;20087;-65
2023/03/16 09:51:06;;;;;;;1.75;1.50;;;14.40;41.50;;;;;;5051721;28;20048;-66
2023/03/16 09:53:39;;;;;;;2.38;1.55;;;13.70;42.10;;;;;;5044262;28;20056;-69
2023/03/16 09:56:11;;;;;;;2.05;1.63;;;13.10;41.40;;;;;;5052072;28;20441;-70
2023/03/16 09:58:37;;;;;;;2.25;1.48;;;13.10;42.70;;;;;;5051286;28;20112;-64
2023/03/16 10:01:15;;;;;;;2.30;1.60;;;13.10;43.60;;;;;;5045714;28;20108;-68
2023/03/16 10:03:59;;;;;;;2.15;1.73;;;13.40;42.10;;;;;;5038822;28;20029;-65
2023/03/16 10:06:26;;;;;;;2.65;2.05;;;13.50;43.40;;;;;;5037536;28;20020;-65
2023/03/16 10:09:13;;;;;;;2.70;1.70;;;14.10;41.70;;;;;;5042510;28;20037;-64
2023/03/16 10:11:43;;;;;;;2.35;1.50;;;14.80;43.40;;;;;;5041667;28;20022;-64
2023/03/16 10:14:22;;;;;;;2.15;1.20;;;15.30;42.80;;;;;;5037488;28;20445;-62
2023/03/16 10:16:50;;;;;;;3.22;1.90;;;15.30;40.30;;;;;;5048822;28;20031;-66
2023/03/16 10:19:41;;;;;;;2.13;1.50;;;15.40;39.90;;;;;;5038923;28;20021;-66
2023/03/16 10:22:18;;;;;;;1.90;1.20;;;15.60;39.70;;;;;;5050385;28;20024;-65
2023/03/16 10:24:57;;;;;;;1.25;1.10;;;15.60;38.50;;;;;;5046616;28;20028;-67
2023/03/16 10:27:30;;;;;;;2.38;1.65;;;15.90;39.90;;;;;;5039306;28;20072;-63
2023/03/16 10:29:56;;;;;;;2.10;1.80;;;15.70;38.50;;;;;;5044906;28;20037;-65
2023/03/16 10:32:27;;;;;;;2.35;1.70;;;15.20;38.00;;;;;;5039254;28;20032;-65
2023/03/16 10:35:32;;;;;;;2.55;1.95;;;15.00;38.90;;;;;;5041682;28;20049;-67
2023/03/16 10:37:58;;;;;;;2.13;1.80;;;14.90;38.20;;;;;;5034237;28;20049;-61
2023/03/16 10:40:32;;;;;;;2.15;1.35;;;15.40;40.00;;;;;;5030338;28;20045;-65
2023/03/16 10:43:05;;;;;;;2.38;1.48;;;15.60;37.40;;;;;;5026664;28;20025;-69
2023/03/16 10:45:34;;;;;;;2.80;1.50;;;16.00;35.80;;;;;;5031299;28;20028;-62
2023/03/16 10:48:27;;;;;;;3.30;1.70;;;15.80;37.80;;;;;;5042269;28;20021;-64
2023/03/16 10:50:57;;;;;;;2.77;1.50;;;16.20;39.80;;;;;;5048985;28;20138;-64
2023/03/16 10:53:29;;;;;;;2.10;1.40;;;16.50;39.70;;;;;;5047887;28;20277;-66
2023/03/16 10:56:00;;;;;;;1.98;1.33;;;17.10;39.00;;;;;;5046532;28;20593;-68
2023/03/16 10:58:32;;;;;;;1.83;1.40;;;17.20;36.80;;;;;;5048911;28;20119;-66
2023/03/16 11:00:58;;;;;;;1.77;1.27;;;17.80;39.40;;;;;;5049411;28;20021;-70
2023/03/16 11:03:33;;;;;;;3.00;1.60;;;18.00;37.70;;;;;;5049714;28;20032;-70
2023/03/16 11:06:04;;;;;;;2.72;1.65;;;17.50;36.00;;;;;;5050417;28;20025;-69
2023/03/16 11:08:37;;;;;;;1.67;1.38;;;17.10;36.10;;;;;;5050429;28;20159;-61
2023/03/16 11:11:15;;;;;;;1.52;1.10;;;16.90;36.70;;;;;;5050380;28;20040;-68
2023/03/16 11:13:46;;;;;;;1.42;0.90;;;16.80;34.50;;;;;;5051569;28;20025;-70
2023/03/16 11:16:41;;;;;;;3.05;1.80;;;16.60;35.70;;;;;;5052632;28;20025;-67
2023/03/16 11:19:10;;;;;;;1.98;1.35;;;16.30;36.50;;;;;;5052773;28;20025;-67
2023/03/16 11:21:43;;;;;;;2.45;2.00;;;16.00;37.90;;;;;;5052629;28;20066;-66
2023/03/16 11:24:31;;;;;;;2.15;1.95;;;15.80;38.70;;;;;;5051433;28;20104;-71
2023/03/16 11:27:02;;;;;;;2.03;1.63;;;15.80;38.30;;;;;;5051608;28;20478;-68
2023/03/16 11:29:33;;;;;;;2.80;1.45;;;16.00;41.40;;;;;;5051753;28;20033;-67
2023/03/16 11:32:04;;;;;;;2.15;1.40;;;16.70;39.40;;;;;;5051215;28;20070;-63
2023/03/16 11:34:32;;;;;;;1.50;1.35;;;17.20;36.60;;;;;;5053065;28;20128;-68
2023/03/16 11:37:11;;;;;;;1.83;1.30;;;17.00;35.10;;;;;;5052709;28;20491;-66
2023/03/16 11:39:43;;;;;;;1.50;1.33;;;15.70;35.00;;;;;;5052141;28;20033;-67
2023/03/16 11:42:12;;;;;;;2.08;1.50;;;15.20;36.90;;;;;;5051836;28;20021;-65
2023/03/16 11:45:02;;;;;;;1.52;1.23;;;15.20;36.50;;;;;;5049208;28;20021;-64
2023/03/16 11:47:53;;;;;;;1.77;1.17;;;15.50;38.30;;;;;;5048618;28;20021;-66
2023/03/16 11:50:53;;;;;;;1.85;1.50;;;15.50;37.20;;;;;;5048893;28;20025;-65
2023/03/16 11:53:24;;;;;;;1.35;1.25;;;15.30;38.40;;;;;;5049111;28;20511;-68
2023/03/16 11:56:08;;;;;;;1.90;1.58;;;15.50;39.10;;;;;;5051271;28;20022;-69
2023/03/16 11:58:42;;;;;;;1.77;1.58;;;15.90;43.50;;;;;;5050738;28;20025;-65
2023/03/16 12:01:12;;;;;;;2.05;1.30;;;16.60;38.80;;;;;;5054272;28;20116;-68
2023/03/16 12:04:20;;;;;;;1.48;1.15;;;16.80;37.50;;;;;;5053653;28;20483;-69
2023/03/16 12:07:11;;;;;;;2.22;1.23;;;16.80;34.10;;;;;;5054301;28;20489;-67
2023/03/16 12:10:17;;;;;;;1.05;0.77;;;16.70;36.20;;;;;;5044159;28;20090;-63
2023/03/16 12:12:52;;;;;;;2.80;1.63;;;16.70;35.00;;;;;;5043808;28;20083;-64
2023/03/16 12:15:34;;;;;;;1.52;1.40;;;15.80;35.50;;;;;;5044112;28;20025;-69
2023/03/16 12:18:22;;;;;;;1.95;1.30;;;15.30;38.90;;;;;;5041772;28;20094;-67
2023/03/16 12:21:20;;;;;;;2.47;1.50;;;15.40;35.90;;;;;;5036639;28;20048;-66
2023/03/16 12:23:59;;;;;;;1.65;1.25;;;15.40;38.30;;;;;;5043648;28;20121;-64
2023/03/16 12:26:29;;;;;;;1.25;1.13;;;16.10;38.90;;;;;;5041673;28;20095;-60
2023/03/16 12:28:56;;;;;;;2.05;1.17;;;16.70;39.70;;;;;;5050930;28;20480;-61
2023/03/16 12:31:39;;;;;;;1.30;1.20;;;17.40;38.40;;;;;;5051050;28;20463;-64
2023/03/16 12:34:43;;;;;;;1.17;1.00;;;17.70;37.30;;;;;;5035816;28;20390;-67
2023/03/16 12:37:20;;;;;;;1.20;1.10;;;18.00;36.20;;;;;;5029832;28;20095;-63
2023/03/16 12:40:08;;;;;;;1.70;1.15;;;18.10;34.60;;;;;;5050160;28;20025;-62
2023/03/16 12:42:52;;;;;;;1.20;0.90;;;17.50;34.40;;;;;;5044279;28;20362;-64
2023/03/16 12:45:41;;;;;;;1.58;1.05;;;16.80;34.00;;;;;;5040487;28;20022;-61
2023/03/16 12:48:13;;;;;;;1.58;1.00;;;16.50;33.70;;;;;;5044324;28;20021;-67
2023/03/16 12:50:55;;;;;;;2.47;1.10;;;16.20;35.50;;;;;;5042342;28;20030;-64
2023/03/16 12:53:38;;;;;;;1.23;1.10;;;16.30;36.50;;;;;;5043765;28;20068;-62
2023/03/16 12:56:08;;;;;;;1.95;1.35;;;16.10;35.40;;;;;;5042657;28;20072;-63